Terminal Aerodrome Forecast
Issued by NWS Paducah, KY

Home | Current Version | Previous Version | Text Only | Print | Product List | Glossary On
Versions: 1 2 3 4 5 6 7 8 9 10 11 12 13 14 15 16 17
746
FTUS43 KPAH 241735
TAFEVV
TAF
KEVV 241735Z 2418/2518 VRB04KT P6SM BKN020
     FM242100 15007KT P6SM SCT150
     FM251200 20010G18KT P6SM SCT015 BKN025=

USA.gov is the U.S. government's official web portal to all federal, state and local government web resources and services.